createdAt,value
2018-01-27T00:00:32.496Z,1028.84
2018-01-27T00:01:59.659Z,1028.83
2018-01-27T00:03:26.855Z,1028.85
2018-01-27T00:04:53.975Z,1028.88
2018-01-27T00:06:20.733Z,1028.88
2018-01-27T00:07:47.853Z,1028.89
2018-01-27T00:09:15.127Z,1028.91
2018-01-27T00:10:42.061Z,1028.91
2018-01-27T00:12:09.403Z,1028.95
2018-01-27T00:13:36.653Z,1028.95
2018-01-27T00:15:03.940Z,1028.93
2018-01-27T00:16:31.068Z,1028.93
2018-01-27T00:17:58.263Z,1028.91
2018-01-27T00:19:25.414Z,1028.91
2018-01-27T00:20:52.660Z,1028.93
2018-01-27T00:22:19.845Z,1028.94
2018-01-27T00:23:47.059Z,1028.95
2018-01-27T00:25:14.304Z,1028.97
2018-01-27T00:26:41.331Z,1029.00
2018-01-27T00:28:08.721Z,1029.03
2018-01-27T00:29:35.951Z,1029.04
2018-01-27T00:31:03.148Z,1029.07
2018-01-27T00:32:30.088Z,1029.08
2018-01-27T00:33:57.375Z,1029.11
2018-01-27T00:35:24.523Z,1029.10
2018-01-27T00:36:51.791Z,1029.11
2018-01-27T00:38:19.199Z,1029.10
2018-01-27T00:39:46.435Z,1029.07
2018-01-27T00:41:13.762Z,1029.06
2018-01-27T00:42:40.828Z,1029.06
2018-01-27T00:44:07.826Z,1029.06
2018-01-27T00:45:35.030Z,1029.04
2018-01-27T00:47:02.281Z,1029.07
2018-01-27T00:48:29.372Z,1029.07
2018-01-27T00:49:56.495Z,1029.07
2018-01-27T00:51:23.677Z,1029.12
2018-01-27T00:52:50.761Z,1029.14
2018-01-27T00:54:18.185Z,1029.15
2018-01-27T00:55:45.439Z,1029.17
2018-01-27T00:57:12.457Z,1029.20
2018-01-27T00:58:39.651Z,1029.22
2018-01-27T01:00:07.014Z,1029.18
2018-01-27T01:01:34.078Z,1029.20
2018-01-27T01:03:01.081Z,1029.20
2018-01-27T01:04:28.219Z,1029.23
2018-01-27T01:05:55.495Z,1029.25
2018-01-27T01:07:22.765Z,1029.26
2018-01-27T01:08:49.823Z,1029.30
2018-01-27T01:10:17.171Z,1029.33
2018-01-27T01:11:44.420Z,1029.38
2018-01-27T01:13:11.689Z,1029.39
2018-01-27T01:14:39.042Z,1029.36
2018-01-27T01:16:06.096Z,1029.35
2018-01-27T01:17:33.165Z,1029.37
2018-01-27T01:19:00.249Z,1029.37
2018-01-27T01:20:27.319Z,1029.39
2018-01-27T01:21:54.707Z,1029.37
2018-01-27T01:23:21.953Z,1029.35
2018-01-27T01:24:49.246Z,1029.34
2018-01-27T01:26:16.404Z,1029.35
2018-01-27T01:27:43.678Z,1029.37
2018-01-27T01:29:10.846Z,1029.40
2018-01-27T01:30:38.093Z,1029.42
2018-01-27T01:32:05.360Z,1029.45
2018-01-27T01:33:32.631Z,1029.45
2018-01-27T01:34:59.828Z,1029.48
2018-01-27T01:36:28.087Z,1029.48
2018-01-27T01:37:54.326Z,1029.48
2018-01-27T01:39:21.562Z,1029.45
2018-01-27T01:40:48.694Z,1029.47
2018-01-27T01:42:15.720Z,1029.48
2018-01-27T01:43:43.016Z,1029.51
2018-01-27T01:45:10.331Z,1029.52
2018-01-27T01:46:37.675Z,1029.53
2018-01-27T01:48:04.859Z,1029.51
2018-01-27T01:49:32.153Z,1029.51
2018-01-27T01:50:59.147Z,1029.51
2018-01-27T01:52:26.636Z,1029.47
2018-01-27T01:53:53.762Z,1029.49
2018-01-27T01:55:21.080Z,1029.45
2018-01-27T01:56:48.159Z,1029.46
2018-01-27T01:58:15.458Z,1029.49
2018-01-27T01:59:42.995Z,1029.48
2018-01-27T02:01:10.353Z,1029.50
2018-01-27T02:02:37.766Z,1029.51
2018-01-27T02:04:05.035Z,1029.51
2018-01-27T02:05:32.169Z,1029.54
2018-01-27T02:06:59.051Z,1029.53
2018-01-27T02:08:26.173Z,1029.54
2018-01-27T02:09:53.559Z,1029.56
2018-01-27T02:11:20.998Z,1029.58
2018-01-27T02:12:48.415Z,1029.57
2018-01-27T02:14:15.582Z,1029.55
2018-01-27T02:15:42.703Z,1029.56
2018-01-27T02:17:09.914Z,1029.57
2018-01-27T02:18:36.995Z,1029.59
2018-01-27T02:20:04.313Z,1029.60
2018-01-27T02:21:31.324Z,1029.58
2018-01-27T02:22:58.685Z,1029.55
2018-01-27T02:24:26.012Z,1029.54
2018-01-27T02:25:53.044Z,1029.52
2018-01-27T02:27:20.326Z,1029.50
2018-01-27T02:28:47.620Z,1029.53
2018-01-27T02:30:14.873Z,1029.55
2018-01-27T02:31:42.107Z,1029.53
2018-01-27T02:33:09.495Z,1029.54
2018-01-27T02:34:36.770Z,1029.53
2018-01-27T02:36:03.937Z,1029.53
2018-01-27T02:37:30.911Z,1029.55
2018-01-27T02:38:58.065Z,1029.60
2018-01-27T02:40:25.371Z,1029.61
2018-01-27T02:41:52.290Z,1029.65
2018-01-27T02:43:19.564Z,1029.65
2018-01-27T02:44:46.686Z,1029.64
2018-01-27T02:46:14.045Z,1029.65
2018-01-27T02:47:41.447Z,1029.65
2018-01-27T02:49:08.420Z,1029.67
2018-01-27T02:50:35.732Z,1029.64
2018-01-27T02:52:03.030Z,1029.66
2018-01-27T02:53:29.984Z,1029.63
2018-01-27T02:54:57.350Z,1029.64
2018-01-27T02:56:24.741Z,1029.63
2018-01-27T02:57:52.018Z,1029.64
2018-01-27T02:59:19.327Z,1029.68
2018-01-27T03:00:46.742Z,1029.69
2018-01-27T03:02:14.138Z,1029.67
2018-01-27T03:03:41.488Z,1029.69
2018-01-27T03:05:08.828Z,1029.73
2018-01-27T03:06:36.069Z,1029.73
2018-01-27T03:08:03.317Z,1029.72
2018-01-27T03:09:30.452Z,1029.73
2018-01-27T03:10:57.795Z,1029.74
2018-01-27T03:12:25.103Z,1029.77
2018-01-27T03:13:52.289Z,1029.78
2018-01-27T03:15:19.648Z,1029.77
2018-01-27T03:16:46.944Z,1029.75
2018-01-27T03:18:14.326Z,1029.72
2018-01-27T03:19:41.601Z,1029.72
2018-01-27T03:21:08.938Z,1029.76
2018-01-27T03:22:36.103Z,1029.78
2018-01-27T03:24:03.097Z,1029.83
2018-01-27T03:25:30.247Z,1029.84
2018-01-27T03:26:57.655Z,1029.89
2018-01-27T03:28:25.063Z,1029.88
2018-01-27T03:29:52.312Z,1029.89
2018-01-27T03:31:19.369Z,1029.91
2018-01-27T03:32:46.768Z,1029.92
2018-01-27T03:34:13.935Z,1029.95
2018-01-27T03:35:41.198Z,1029.96
2018-01-27T03:37:08.447Z,1030.01
2018-01-27T03:38:35.712Z,1030.01
2018-01-27T03:40:02.877Z,1030.03
2018-01-27T03:41:29.836Z,1030.04
2018-01-27T03:42:57.137Z,1030.08
2018-01-27T03:44:24.390Z,1030.11
2018-01-27T03:45:51.867Z,1030.13
2018-01-27T03:47:18.792Z,1030.15
2018-01-27T03:48:45.880Z,1030.19
2018-01-27T03:50:13.216Z,1030.21
2018-01-27T03:51:40.490Z,1030.22
2018-01-27T03:53:07.826Z,1030.24
2018-01-27T03:54:34.957Z,1030.27
2018-01-27T03:56:02.177Z,1030.27
2018-01-27T03:57:29.115Z,1030.27
2018-01-27T03:58:56.343Z,1030.28
2018-01-27T04:00:23.660Z,1030.29
2018-01-27T04:01:51.224Z,1030.31
2018-01-27T04:03:18.802Z,1030.31
2018-01-27T04:04:45.912Z,1030.29
2018-01-27T04:06:12.988Z,1030.32
2018-01-27T04:07:40.296Z,1030.32
2018-01-27T04:09:07.667Z,1030.32
2018-01-27T04:10:34.974Z,1030.33
2018-01-27T04:12:02.101Z,1030.38
2018-01-27T04:13:29.383Z,1030.39
2018-01-27T04:14:56.587Z,1030.42
2018-01-27T04:16:23.676Z,1030.44
2018-01-27T04:17:51.030Z,1030.46
2018-01-27T04:19:18.218Z,1030.51
2018-01-27T04:20:45.591Z,1030.53
2018-01-27T04:22:12.842Z,1030.56
2018-01-27T04:23:40.150Z,1030.56
2018-01-27T04:25:07.575Z,1030.60
2018-01-27T04:26:34.347Z,1030.59
2018-01-27T04:28:01.538Z,1030.60
2018-01-27T04:29:28.832Z,1030.60
2018-01-27T04:30:55.844Z,1030.61
2018-01-27T04:32:23.002Z,1030.65
2018-01-27T04:33:50.302Z,1030.69
2018-01-27T04:35:17.598Z,1030.74
2018-01-27T04:36:44.854Z,1030.77
2018-01-27T04:38:12.123Z,1030.76
2018-01-27T04:39:39.344Z,1030.78
2018-01-27T04:41:06.677Z,1030.81
2018-01-27T04:42:34.037Z,1030.81
2018-01-27T04:44:01.195Z,1030.84
2018-01-27T04:45:28.611Z,1030.85
2018-01-27T04:46:55.577Z,1030.90
2018-01-27T04:48:22.895Z,1030.94
2018-01-27T04:49:50.171Z,1030.95
2018-01-27T04:51:17.300Z,1030.99
2018-01-27T04:52:44.574Z,1030.99
2018-01-27T04:54:11.906Z,1031.02
2018-01-27T04:55:38.929Z,1031.02
2018-01-27T04:57:06.161Z,1031.02
2018-01-27T04:58:33.427Z,1031.02
2018-01-27T05:00:00.407Z,1031.08
2018-01-27T05:01:27.749Z,1031.06
2018-01-27T05:02:55.175Z,1031.08
2018-01-27T05:04:22.377Z,1031.06
2018-01-27T05:05:49.745Z,1031.08
2018-01-27T05:07:16.953Z,1031.08
2018-01-27T05:08:44.168Z,1031.10
2018-01-27T05:10:11.517Z,1031.10
2018-01-27T05:11:38.651Z,1031.09
2018-01-27T05:13:06.004Z,1031.10
2018-01-27T05:14:33.163Z,1031.07
2018-01-27T05:16:00.122Z,1031.08
2018-01-27T05:17:27.185Z,1031.10
2018-01-27T05:18:54.534Z,1031.14
2018-01-27T05:20:21.812Z,1031.15
2018-01-27T05:21:48.866Z,1031.15
2018-01-27T05:23:16.134Z,1031.17
2018-01-27T05:24:43.338Z,1031.22
2018-01-27T05:26:10.464Z,1031.25
2018-01-27T05:27:37.422Z,1031.30
2018-01-27T05:29:04.610Z,1031.30
2018-01-27T05:30:31.821Z,1031.34
2018-01-27T05:31:59.044Z,1031.38
2018-01-27T05:33:26.157Z,1031.39
2018-01-27T05:34:53.179Z,1031.44
2018-01-27T05:36:20.250Z,1031.45
2018-01-27T05:37:47.566Z,1031.48
2018-01-27T05:39:14.792Z,1031.48
2018-01-27T05:40:42.051Z,1031.48
2018-01-27T05:42:09.270Z,1031.46
2018-01-27T05:43:36.256Z,1031.43
2018-01-27T05:45:03.444Z,1031.44
2018-01-27T05:46:30.577Z,1031.43
2018-01-27T05:47:57.971Z,1031.43
2018-01-27T05:49:25.214Z,1031.40
2018-01-27T05:50:52.579Z,1031.44
2018-01-27T05:52:19.844Z,1031.43
2018-01-27T05:53:46.788Z,1031.45
2018-01-27T05:55:13.930Z,1031.45
2018-01-27T05:56:41.136Z,1031.48
2018-01-27T05:58:08.222Z,1031.50
2018-01-27T05:59:35.529Z,1031.51
2018-01-27T06:01:02.737Z,1031.52
2018-01-27T06:02:29.741Z,1031.50
2018-01-27T06:03:56.851Z,1031.50
2018-01-27T06:05:24.201Z,1031.53
2018-01-27T06:06:51.576Z,1031.53
2018-01-27T06:08:18.716Z,1031.55
2018-01-27T06:09:45.550Z,1031.56
2018-01-27T06:11:12.771Z,1031.59
2018-01-27T06:12:39.960Z,1031.63
2018-01-27T06:14:07.146Z,1031.68
2018-01-27T06:15:34.375Z,1031.69
2018-01-27T06:17:01.547Z,1031.70
2018-01-27T06:18:28.825Z,1031.72
2018-01-27T06:19:56.077Z,1031.74
2018-01-27T06:21:23.436Z,1031.77
2018-01-27T06:22:50.309Z,1031.78
2018-01-27T06:24:17.506Z,1031.78
2018-01-27T06:25:44.889Z,1031.76
2018-01-27T06:27:12.125Z,1031.77
2018-01-27T06:28:39.132Z,1031.79
2018-01-27T06:30:06.438Z,1031.81
2018-01-27T06:31:33.676Z,1031.83
2018-01-27T06:33:00.859Z,1031.83
2018-01-27T06:34:27.779Z,1031.86
2018-01-27T06:35:55.103Z,1031.88
2018-01-27T06:37:21.968Z,1031.89
2018-01-27T06:38:49.138Z,1031.85
2018-01-27T06:40:16.503Z,1031.88
2018-01-27T06:41:43.709Z,1031.89
2018-01-27T06:43:10.621Z,1031.89
2018-01-27T06:44:37.645Z,1031.92
2018-01-27T06:46:04.892Z,1031.93
2018-01-27T06:47:32.159Z,1031.96
2018-01-27T06:48:59.013Z,1031.96
2018-01-27T06:50:26.103Z,1031.96
2018-01-27T06:51:53.505Z,1031.97
2018-01-27T06:53:20.617Z,1031.93
2018-01-27T06:54:48.050Z,1031.94
2018-01-27T06:56:15.177Z,1031.96
2018-01-27T06:57:42.332Z,1031.99
2018-01-27T06:59:09.590Z,1032.06
2018-01-27T07:00:36.857Z,1032.10
2018-01-27T07:02:04.055Z,1032.11
2018-01-27T07:03:30.983Z,1032.08
2018-01-27T07:04:58.254Z,1032.08
2018-01-27T07:06:25.398Z,1032.08
2018-01-27T07:07:52.435Z,1032.10
2018-01-27T07:09:19.810Z,1032.10
2018-01-27T07:10:47.033Z,1032.11
2018-01-27T07:12:14.352Z,1032.11
2018-01-27T07:13:41.580Z,1032.09
2018-01-27T07:15:08.933Z,1032.09
2018-01-27T07:16:35.665Z,1032.09
2018-01-27T07:18:02.889Z,1032.10
2018-01-27T07:19:30.063Z,1032.11
2018-01-27T07:20:57.320Z,1032.15
2018-01-27T07:22:24.664Z,1032.20
2018-01-27T07:23:51.812Z,1032.25
2018-01-27T07:25:18.935Z,1032.27
2018-01-27T07:26:46.341Z,1032.25
2018-01-27T07:28:13.633Z,1032.27
2018-01-27T07:29:40.474Z,1032.28
2018-01-27T07:31:07.766Z,1032.30
2018-01-27T07:32:34.985Z,1032.32
2018-01-27T07:34:02.036Z,1032.34
2018-01-27T07:35:29.584Z,1032.34
2018-01-27T07:36:57.005Z,1032.32
2018-01-27T07:38:24.266Z,1032.31
2018-01-27T07:39:51.594Z,1032.32
2018-01-27T07:41:19.146Z,1032.33
2018-01-27T07:42:46.324Z,1032.36
2018-01-27T07:44:13.648Z,1032.38
2018-01-27T07:45:40.906Z,1032.38
2018-01-27T07:47:08.124Z,1032.43
2018-01-27T07:48:35.441Z,1032.48
2018-01-27T07:50:02.519Z,1032.49
2018-01-27T07:51:29.608Z,1032.48
2018-01-27T07:52:56.515Z,1032.50
2018-01-27T07:54:23.835Z,1032.51
2018-01-27T07:55:51.118Z,1032.53
2018-01-27T07:57:18.044Z,1032.52
2018-01-27T07:58:45.276Z,1032.54
2018-01-27T08:00:12.148Z,1032.55
2018-01-27T08:01:39.501Z,1032.58
2018-01-27T08:03:06.722Z,1032.59
2018-01-27T08:04:33.782Z,1032.64
2018-01-27T08:06:01.054Z,1032.63
2018-01-27T08:07:28.407Z,1032.66
2018-01-27T08:08:55.702Z,1032.69
2018-01-27T08:10:22.951Z,1032.73
2018-01-27T08:11:50.316Z,1032.75
2018-01-27T08:13:17.571Z,1032.76
2018-01-27T08:14:44.796Z,1032.74
2018-01-27T08:16:12.141Z,1032.73
2018-01-27T08:17:39.445Z,1032.74
2018-01-27T08:19:06.762Z,1032.72
2018-01-27T08:20:34.048Z,1032.72
2018-01-27T08:22:01.058Z,1032.73
2018-01-27T08:23:28.518Z,1032.72
2018-01-27T08:24:55.597Z,1032.71
2018-01-27T08:26:22.850Z,1032.66
2018-01-27T08:27:50.022Z,1032.63
2018-01-27T08:29:17.378Z,1032.65
2018-01-27T08:30:44.738Z,1032.63
2018-01-27T08:32:11.832Z,1032.64
2018-01-27T08:33:39.265Z,1032.62
2018-01-27T08:35:06.332Z,1032.62
2018-01-27T08:36:33.255Z,1032.61
2018-01-27T08:38:00.375Z,1032.66
2018-01-27T08:39:27.756Z,1032.65
2018-01-27T08:40:55.163Z,1032.65
2018-01-27T08:42:22.388Z,1032.65
2018-01-27T08:43:49.828Z,1032.65
2018-01-27T08:45:17.168Z,1032.65
2018-01-27T08:46:44.401Z,1032.63
2018-01-27T08:48:11.534Z,1032.61
2018-01-27T08:49:38.860Z,1032.65
2018-01-27T08:51:06.004Z,1032.64
2018-01-27T08:52:33.299Z,1032.64
2018-01-27T08:54:00.371Z,1032.64
2018-01-27T08:55:27.605Z,1032.68
2018-01-27T08:56:54.860Z,1032.68
2018-01-27T08:58:22.206Z,1032.71
2018-01-27T08:59:49.281Z,1032.70
2018-01-27T09:01:16.296Z,1032.70
2018-01-27T09:02:43.707Z,1032.70
2018-01-27T09:04:10.740Z,1032.72
2018-01-27T09:05:38.063Z,1032.71
2018-01-27T09:07:05.332Z,1032.72
2018-01-27T09:08:32.576Z,1032.74
2018-01-27T09:09:59.528Z,1032.78
2018-01-27T09:11:26.696Z,1032.79
2018-01-27T09:12:54.137Z,1032.76
2018-01-27T09:14:21.324Z,1032.81
2018-01-27T09:15:48.641Z,1032.83
2018-01-27T09:17:16.045Z,1032.88
2018-01-27T09:18:43.203Z,1032.88
2018-01-27T09:20:10.466Z,1032.90
2018-01-27T09:21:37.792Z,1032.90
2018-01-27T09:23:05.024Z,1032.94
2018-01-27T09:24:32.339Z,1032.95
2018-01-27T09:25:59.490Z,1032.97
2018-01-27T09:27:26.934Z,1032.98
2018-01-27T09:28:53.995Z,1032.98
2018-01-27T09:30:21.221Z,1032.94
2018-01-27T09:31:48.469Z,1032.97
2018-01-27T09:33:15.940Z,1032.98
2018-01-27T09:34:43.286Z,1032.98
2018-01-27T09:36:10.415Z,1032.97
2018-01-27T09:37:37.590Z,1032.95
2018-01-27T09:39:04.895Z,1032.93
2018-01-27T09:40:32.219Z,1032.94
2018-01-27T09:41:59.146Z,1032.95
2018-01-27T09:43:26.509Z,1032.95
2018-01-27T09:44:53.748Z,1033.01
2018-01-27T09:46:20.982Z,1033.03
2018-01-27T09:47:48.314Z,1033.04
2018-01-27T09:49:15.499Z,1033.06
2018-01-27T09:50:42.832Z,1033.09
2018-01-27T09:52:10.187Z,1033.10
2018-01-27T09:53:37.445Z,1033.13
2018-01-27T09:55:04.704Z,1033.14
2018-01-27T09:56:31.861Z,1033.11
2018-01-27T09:57:59.328Z,1033.07
2018-01-27T09:59:26.495Z,1033.07
2018-01-27T10:00:53.606Z,1033.08
2018-01-27T10:02:20.819Z,1033.10
2018-01-27T10:03:47.765Z,1033.11
2018-01-27T10:05:15.052Z,1033.14
2018-01-27T10:06:42.522Z,1033.16
2018-01-27T10:08:09.759Z,1033.17
2018-01-27T10:09:37.017Z,1033.19
2018-01-27T10:11:04.175Z,1033.20
2018-01-27T10:12:31.232Z,1033.24
2018-01-27T10:13:58.606Z,1033.25
2018-01-27T10:15:25.972Z,1033.31
2018-01-27T10:16:53.243Z,1033.29
2018-01-27T10:18:20.533Z,1033.31
2018-01-27T10:19:47.636Z,1033.34
2018-01-27T10:21:15.079Z,1033.30
2018-01-27T10:22:42.285Z,1033.28
2018-01-27T10:24:09.721Z,1033.28
2018-01-27T10:25:37.002Z,1033.27
2018-01-27T10:27:04.120Z,1033.30
2018-01-27T10:28:31.191Z,1033.24
2018-01-27T10:29:58.362Z,1033.22
2018-01-27T10:31:25.598Z,1033.22
2018-01-27T10:32:52.850Z,1033.21
2018-01-27T10:34:20.149Z,1033.23
2018-01-27T10:35:47.287Z,1033.25
2018-01-27T10:37:14.566Z,1033.27
2018-01-27T10:38:41.994Z,1033.25
2018-01-27T10:40:09.137Z,1033.25
2018-01-27T10:41:36.382Z,1033.25
2018-01-27T10:43:03.609Z,1033.24
2018-01-27T10:44:30.899Z,1033.24
2018-01-27T10:45:58.294Z,1033.23
2018-01-27T10:47:25.492Z,1033.26
2018-01-27T10:48:52.890Z,1033.28
2018-01-27T10:50:20.246Z,1033.33
2018-01-27T10:51:47.496Z,1033.33
2018-01-27T10:53:14.805Z,1033.33
2018-01-27T10:54:42.379Z,1033.34
2018-01-27T10:56:09.463Z,1033.35
2018-01-27T10:57:36.918Z,1033.34
2018-01-27T10:59:04.056Z,1033.30
2018-01-27T11:00:31.151Z,1033.26
2018-01-27T11:01:58.357Z,1033.23
2018-01-27T11:03:25.664Z,1033.24
2018-01-27T11:04:52.976Z,1033.21
2018-01-27T11:06:20.305Z,1033.22
2018-01-27T11:07:47.656Z,1033.22
2018-01-27T11:09:15.022Z,1033.19
2018-01-27T11:10:42.273Z,1033.17
2018-01-27T11:12:09.517Z,1033.14
2018-01-27T11:13:36.839Z,1033.17
2018-01-27T11:15:03.967Z,1033.17
2018-01-27T11:16:31.215Z,1033.15
2018-01-27T11:17:58.642Z,1033.17
2018-01-27T11:19:25.970Z,1033.20
2018-01-27T11:20:53.230Z,1033.20
2018-01-27T11:22:20.389Z,1033.20
2018-01-27T11:23:47.605Z,1033.21
2018-01-27T11:25:14.963Z,1033.20
2018-01-27T11:26:42.143Z,1033.23
2018-01-27T11:28:09.402Z,1033.20
2018-01-27T11:29:36.575Z,1033.18
2018-01-27T11:31:03.795Z,1033.17
2018-01-27T11:32:30.940Z,1033.13
2018-01-27T11:33:58.224Z,1033.07
2018-01-27T11:35:25.681Z,1033.07
2018-01-27T11:36:53.062Z,1033.13
2018-01-27T11:38:20.268Z,1033.12
2018-01-27T11:39:47.532Z,1033.12
2018-01-27T11:41:14.755Z,1033.12
2018-01-27T11:42:41.631Z,1033.12
2018-01-27T11:44:08.878Z,1033.14
2018-01-27T11:45:35.722Z,1033.10
2018-01-27T11:47:02.960Z,1033.05
2018-01-27T11:48:30.022Z,1033.03
2018-01-27T11:49:57.351Z,1033.02
2018-01-27T11:51:24.408Z,1032.97
2018-01-27T11:52:51.661Z,1032.96
2018-01-27T11:54:19.016Z,1032.93
2018-01-27T11:55:46.033Z,1032.93
2018-01-27T11:57:13.081Z,1032.91
2018-01-27T11:58:40.475Z,1032.91
2018-01-27T12:00:07.803Z,1032.91
2018-01-27T12:01:35.001Z,1032.92
2018-01-27T12:03:02.311Z,1032.91
2018-01-27T12:04:29.340Z,1032.91
2018-01-27T12:05:56.601Z,1032.90
2018-01-27T12:07:23.778Z,1032.88
2018-01-27T12:08:50.690Z,1032.87
2018-01-27T12:10:18.035Z,1032.89
2018-01-27T12:11:45.034Z,1032.89
2018-01-27T12:13:11.930Z,1032.90
2018-01-27T12:14:39.126Z,1032.90
2018-01-27T12:16:06.349Z,1032.92
2018-01-27T12:17:33.384Z,1032.93
2018-01-27T12:19:00.611Z,1032.92
2018-01-27T12:20:27.937Z,1032.95
2018-01-27T12:21:55.009Z,1032.95
2018-01-27T12:23:22.455Z,1032.98
2018-01-27T12:24:49.651Z,1032.99
2018-01-27T12:26:16.833Z,1032.97
2018-01-27T12:27:44.066Z,1032.96
2018-01-27T12:29:11.349Z,1032.93
2018-01-27T12:30:38.547Z,1032.90
2018-01-27T12:32:05.817Z,1032.86
2018-01-27T12:33:33.077Z,1032.82
2018-01-27T12:35:00.119Z,1032.76
2018-01-27T12:36:27.416Z,1032.73
2018-01-27T12:37:54.787Z,1032.72
2018-01-27T12:39:22.139Z,1032.74
2018-01-27T12:40:49.538Z,1032.72
2018-01-27T12:42:16.956Z,1032.72
2018-01-27T12:43:44.085Z,1032.72
2018-01-27T12:45:11.420Z,1032.74
2018-01-27T12:46:38.330Z,1032.71
2018-01-27T12:48:05.630Z,1032.66
2018-01-27T12:49:32.669Z,1032.64
2018-01-27T12:50:59.730Z,1032.67
2018-01-27T12:52:26.927Z,1032.65
2018-01-27T12:53:54.241Z,1032.65
2018-01-27T12:55:21.476Z,1032.62
2018-01-27T12:56:48.860Z,1032.58
2018-01-27T12:58:15.995Z,1032.56
2018-01-27T12:59:43.217Z,1032.52
2018-01-27T13:01:10.537Z,1032.50
2018-01-27T13:02:37.652Z,1032.48
2018-01-27T13:04:04.938Z,1032.45
2018-01-27T13:05:32.238Z,1032.43
2018-01-27T13:06:59.599Z,1032.43
2018-01-27T13:08:27.031Z,1032.43
2018-01-27T13:09:54.261Z,1032.42
2018-01-27T13:11:21.654Z,1032.40
2018-01-27T13:12:49.073Z,1032.39
2018-01-27T13:14:16.369Z,1032.38
2018-01-27T13:15:43.576Z,1032.34
2018-01-27T13:17:10.667Z,1032.34
2018-01-27T13:18:38.042Z,1032.37
2018-01-27T13:20:05.049Z,1032.38
2018-01-27T13:21:32.347Z,1032.35
2018-01-27T13:22:59.451Z,1032.35
2018-01-27T13:24:26.612Z,1032.34
2018-01-27T13:25:53.787Z,1032.35
2018-01-27T13:27:21.080Z,1032.32
2018-01-27T13:28:48.234Z,1032.29
2018-01-27T13:30:15.536Z,1032.24
2018-01-27T13:31:42.864Z,1032.25
2018-01-27T13:33:10.030Z,1032.26
2018-01-27T13:34:37.326Z,1032.25
2018-01-27T13:36:04.680Z,1032.20
2018-01-27T13:37:31.639Z,1032.18
2018-01-27T13:38:58.916Z,1032.20
2018-01-27T13:40:26.271Z,1032.20
2018-01-27T13:41:53.462Z,1032.21
2018-01-27T13:43:20.663Z,1032.22
2018-01-27T13:44:48.051Z,1032.22
2018-01-27T13:46:15.251Z,1032.17
2018-01-27T13:47:42.635Z,1032.12
2018-01-27T13:49:09.914Z,1032.08
2018-01-27T13:50:37.136Z,1032.05
2018-01-27T13:52:04.191Z,1032.02
2018-01-27T13:53:31.326Z,1032.02
2018-01-27T13:54:58.762Z,1032.05
2018-01-27T13:56:26.008Z,1032.05
2018-01-27T13:57:53.339Z,1032.04
2018-01-27T13:59:20.752Z,1032.06
2018-01-27T14:00:48.000Z,1032.07
2018-01-27T14:02:15.199Z,1032.08
2018-01-27T14:03:42.299Z,1032.05
2018-01-27T14:05:09.773Z,1032.09
2018-01-27T14:06:36.998Z,1032.11
2018-01-27T14:08:04.301Z,1032.14
2018-01-27T14:09:31.607Z,1032.19
2018-01-27T14:10:58.807Z,1032.20
2018-01-27T14:12:26.314Z,1032.16
2018-01-27T14:13:53.529Z,1032.15
2018-01-27T14:15:20.882Z,1032.14
2018-01-27T14:16:48.213Z,1032.10
2018-01-27T14:18:15.512Z,1032.12
2018-01-27T14:19:42.783Z,1032.12
2018-01-27T14:21:10.205Z,1032.16
2018-01-27T14:22:37.525Z,1032.19
2018-01-27T14:24:04.779Z,1032.19
2018-01-27T14:25:32.000Z,1032.20
2018-01-27T14:26:59.113Z,1032.21
2018-01-27T14:28:26.437Z,1032.18
2018-01-27T14:29:53.435Z,1032.19
2018-01-27T14:31:20.766Z,1032.15
2018-01-27T14:32:48.066Z,1032.17
2018-01-27T14:34:15.524Z,1032.18
2018-01-27T14:35:42.931Z,1032.16
2018-01-27T14:37:10.138Z,1032.15
2018-01-27T14:38:37.271Z,1032.12
2018-01-27T14:40:04.375Z,1032.11
2018-01-27T14:41:31.419Z,1032.08
2018-01-27T14:42:58.800Z,1032.09
2018-01-27T14:44:26.010Z,1032.18
2018-01-27T14:45:53.453Z,1032.18
2018-01-27T14:47:20.756Z,1032.18
2018-01-27T14:48:48.150Z,1032.20
2018-01-27T14:50:15.444Z,1032.13
2018-01-27T14:51:42.661Z,1032.13
2018-01-27T14:53:10.199Z,1032.12
2018-01-27T14:54:37.299Z,1032.09
2018-01-27T14:56:04.588Z,1032.03
2018-01-27T14:57:31.834Z,1032.02
2018-01-27T14:58:59.167Z,1032.01
2018-01-27T15:00:26.235Z,1032.01
2018-01-27T15:01:53.485Z,1032.03
2018-01-27T15:03:20.577Z,1032.03
2018-01-27T15:04:47.873Z,1032.07
2018-01-27T15:06:15.124Z,1032.12
2018-01-27T15:07:42.410Z,1032.14
2018-01-27T15:09:09.766Z,1032.14
2018-01-27T15:10:36.918Z,1032.10
2018-01-27T15:12:03.961Z,1032.06
2018-01-27T15:13:31.164Z,1031.99
2018-01-27T15:14:58.412Z,1031.97
2018-01-27T15:16:25.716Z,1031.96
2018-01-27T15:17:52.683Z,1031.92
2018-01-27T15:19:20.071Z,1031.91
2018-01-27T15:20:47.411Z,1031.94
2018-01-27T15:22:14.847Z,1031.97
2018-01-27T15:23:42.253Z,1031.96
2018-01-27T15:25:09.399Z,1031.96
2018-01-27T15:26:36.766Z,1031.94
2018-01-27T15:28:04.164Z,1031.95
2018-01-27T15:29:31.326Z,1031.94
2018-01-27T15:30:58.566Z,1031.97
2018-01-27T15:32:26.001Z,1031.96
2018-01-27T15:33:53.325Z,1031.96
2018-01-27T15:35:20.677Z,1031.89
2018-01-27T15:36:48.027Z,1031.84
2018-01-27T15:38:15.529Z,1031.80
2018-01-27T15:39:42.852Z,1031.78
2018-01-27T15:41:10.096Z,1031.72
2018-01-27T15:42:37.439Z,1031.72
2018-01-27T15:44:04.583Z,1031.76
2018-01-27T15:45:31.730Z,1031.75
2018-01-27T15:46:59.086Z,1031.70
2018-01-27T15:48:26.306Z,1031.69
2018-01-27T15:49:53.638Z,1031.70
2018-01-27T15:51:21.095Z,1031.73
2018-01-27T15:52:48.351Z,1031.69
2018-01-27T15:54:15.378Z,1031.69
2018-01-27T15:55:42.372Z,1031.67
2018-01-27T15:57:09.337Z,1031.64
2018-01-27T15:58:36.461Z,1031.59
2018-01-27T16:00:03.154Z,1031.56
2018-01-27T16:01:30.282Z,1031.54
2018-01-27T16:02:57.716Z,1031.53
2018-01-27T16:04:24.983Z,1031.52
2018-01-27T16:05:52.366Z,1031.55
2018-01-27T16:07:19.669Z,1031.57
2018-01-27T16:08:46.962Z,1031.57
2018-01-27T16:10:14.290Z,1031.51
2018-01-27T16:11:41.413Z,1031.55
2018-01-27T16:13:08.761Z,1031.48
2018-01-27T16:14:36.001Z,1031.47
2018-01-27T16:16:03.309Z,1031.45
2018-01-27T16:17:30.341Z,1031.44
2018-01-27T16:18:57.579Z,1031.39
2018-01-27T16:20:24.780Z,1031.35
2018-01-27T16:21:52.108Z,1031.28
2018-01-27T16:23:19.542Z,1031.27
2018-01-27T16:24:46.723Z,1031.27
2018-01-27T16:26:13.828Z,1031.25
2018-01-27T16:27:41.100Z,1031.26
2018-01-27T16:29:08.437Z,1031.24
2018-01-27T16:30:35.500Z,1031.27
2018-01-27T16:32:02.620Z,1031.27
2018-01-27T16:33:29.386Z,1031.27
2018-01-27T16:34:56.770Z,1031.27
2018-01-27T16:36:23.702Z,1031.25
2018-01-27T16:37:50.994Z,1031.19
2018-01-27T16:39:18.266Z,1031.15
2018-01-27T16:40:45.482Z,1031.12
2018-01-27T16:42:12.673Z,1031.07
2018-01-27T16:43:39.738Z,1031.06
2018-01-27T16:45:07.084Z,1031.12
2018-01-27T16:46:34.200Z,1031.06
2018-01-27T16:48:01.371Z,1031.05
2018-01-27T16:49:28.628Z,1031.02
2018-01-27T16:50:55.623Z,1030.94
2018-01-27T16:52:22.955Z,1030.87
2018-01-27T16:53:50.254Z,1030.81
2018-01-27T16:55:17.411Z,1030.78
2018-01-27T16:56:44.762Z,1030.78
2018-01-27T16:58:11.962Z,1030.84
2018-01-27T16:59:39.221Z,1030.83
2018-01-27T17:01:06.084Z,1030.84
2018-01-27T17:02:33.431Z,1030.82
2018-01-27T17:04:00.500Z,1030.82
2018-01-27T17:05:27.550Z,1030.85
2018-01-27T17:06:54.830Z,1030.82
2018-01-27T17:08:22.150Z,1030.82
2018-01-27T17:09:49.375Z,1030.77
2018-01-27T17:11:16.696Z,1030.73
2018-01-27T17:12:44.055Z,1030.67
2018-01-27T17:14:11.345Z,1030.66
2018-01-27T17:15:38.765Z,1030.67
2018-01-27T17:17:06.008Z,1030.70
2018-01-27T17:18:32.909Z,1030.72
2018-01-27T17:19:59.924Z,1030.71
2018-01-27T17:21:27.290Z,1030.66
2018-01-27T17:22:54.678Z,1030.61
2018-01-27T17:24:22.055Z,1030.54
2018-01-27T17:25:49.328Z,1030.53
2018-01-27T17:27:16.677Z,1030.54
2018-01-27T17:28:43.951Z,1030.53
2018-01-27T17:30:11.168Z,1030.52
2018-01-27T17:31:38.411Z,1030.56
2018-01-27T17:33:05.443Z,1030.58
2018-01-27T17:34:32.660Z,1030.55